createdAt,value
2023-04-18T00:01:12.865Z,2.60
2023-04-18T00:03:41.913Z,2.40
2023-04-18T00:06:11.411Z,2.70
2023-04-18T00:08:41.849Z,2.60
2023-04-18T00:11:11.860Z,3.90
2023-04-18T00:13:41.569Z,2.50
2023-04-18T00:16:13.794Z,2.70
2023-04-18T00:18:42.767Z,2.60
2023-04-18T00:21:12.459Z,2.70
2023-04-18T00:23:42.198Z,2.50
2023-04-18T00:26:11.137Z,2.40
2023-04-18T00:28:40.152Z,2.80
2023-04-18T00:31:09.473Z,2.80
2023-04-18T00:33:39.434Z,2.60
2023-04-18T00:36:09.644Z,2.60
2023-04-18T00:38:38.653Z,3.40
2023-04-18T00:41:07.525Z,2.80
2023-04-18T00:43:37.627Z,2.70
2023-04-18T00:46:06.952Z,2.80
2023-04-18T00:48:36.634Z,2.60
2023-04-18T00:51:07.908Z,2.80
2023-04-18T00:53:37.917Z,2.50
2023-04-18T00:56:08.166Z,2.50
2023-04-18T00:58:41.074Z,2.60
2023-04-18T01:01:10.208Z,2.30
2023-04-18T01:03:41.529Z,2.70
2023-04-18T01:06:10.675Z,2.50
2023-04-18T01:08:39.528Z,2.60
2023-04-18T01:11:08.180Z,2.90
2023-04-18T01:13:37.707Z,3.10
2023-04-18T01:16:06.793Z,2.60
2023-04-18T01:18:36.003Z,3.20
2023-04-18T01:21:06.564Z,3.00
2023-04-18T01:23:36.029Z,2.70
2023-04-18T01:26:04.987Z,3.10
2023-04-18T01:28:37.941Z,2.60
2023-04-18T01:31:07.550Z,3.30
2023-04-18T01:33:37.499Z,2.60
2023-04-18T01:36:06.986Z,2.50
2023-04-18T01:38:36.472Z,3.20
2023-04-18T01:41:05.298Z,3.50
2023-04-18T01:43:34.051Z,2.60
2023-04-18T01:46:03.293Z,3.10
2023-04-18T01:48:33.878Z,3.80
2023-04-18T01:51:02.654Z,4.80
2023-04-18T01:53:32.109Z,3.50
2023-04-18T01:56:00.914Z,4.10
2023-04-18T01:58:29.776Z,2.50
2023-04-18T02:00:58.912Z,2.40
2023-04-18T02:03:28.345Z,2.70
2023-04-18T02:05:57.568Z,2.90
2023-04-18T02:08:26.782Z,2.80
2023-04-18T02:10:55.849Z,3.90
2023-04-18T02:13:25.195Z,2.80
2023-04-18T02:15:54.346Z,2.50
2023-04-18T02:18:25.380Z,2.40
2023-04-18T02:20:54.337Z,2.60
2023-04-18T02:23:23.067Z,2.70
2023-04-18T02:25:52.080Z,2.70
2023-04-18T02:28:20.960Z,2.70
2023-04-18T02:30:50.244Z,2.60
2023-04-18T02:33:18.972Z,2.80
2023-04-18T02:35:48.170Z,2.80
2023-04-18T02:38:17.219Z,3.00
2023-04-18T02:40:46.512Z,2.60
2023-04-18T02:43:15.165Z,2.80
2023-04-18T02:45:44.365Z,2.70
2023-04-18T02:48:13.529Z,2.90
2023-04-18T02:50:42.786Z,3.10
2023-04-18T02:53:11.784Z,2.70
2023-04-18T02:55:40.961Z,3.00
2023-04-18T02:58:09.853Z,4.50
2023-04-18T03:00:38.791Z,3.60
2023-04-18T03:03:07.735Z,2.90
2023-04-18T03:05:36.519Z,3.10
2023-04-18T03:08:06.036Z,2.80
2023-04-18T03:10:35.400Z,2.80
2023-04-18T03:13:04.246Z,2.80
2023-04-18T03:15:33.241Z,2.90
2023-04-18T03:18:02.433Z,2.50
2023-04-18T03:20:31.386Z,2.70
2023-04-18T03:23:00.504Z,3.00
2023-04-18T03:25:30.063Z,2.70
2023-04-18T03:27:58.847Z,3.00
2023-04-18T03:30:28.767Z,2.90
2023-04-18T03:32:59.026Z,2.80
2023-04-18T03:35:27.783Z,3.00
2023-04-18T03:37:57.019Z,2.70
2023-04-18T03:40:26.185Z,2.40
2023-04-18T03:42:56.273Z,2.80
2023-04-18T03:45:25.227Z,2.90
2023-04-18T03:47:55.718Z,3.30
2023-04-18T03:50:26.191Z,2.70
2023-04-18T03:52:55.457Z,2.50
2023-04-18T03:55:26.913Z,2.60
2023-04-18T03:57:55.881Z,3.00
2023-04-18T04:00:24.905Z,2.80
2023-04-18T04:02:53.803Z,3.30
2023-04-18T04:05:22.970Z,2.80
2023-04-18T04:07:52.297Z,3.10
2023-04-18T04:10:21.216Z,3.40
2023-04-18T04:12:50.118Z,2.80
2023-04-18T04:15:18.981Z,2.60
2023-04-18T04:17:47.609Z,2.90
2023-04-18T04:20:17.341Z,3.00
2023-04-18T04:22:46.223Z,2.70
2023-04-18T04:25:15.594Z,2.90
2023-04-18T04:27:45.060Z,2.80
2023-04-18T04:30:14.321Z,3.00
2023-04-18T04:32:44.974Z,3.30
2023-04-18T04:35:14.948Z,3.10
2023-04-18T04:37:44.572Z,2.80
2023-04-18T04:40:13.638Z,2.60
2023-04-18T04:42:42.906Z,3.20
2023-04-18T04:45:12.877Z,3.10
2023-04-18T04:47:41.791Z,2.90
2023-04-18T04:50:15.095Z,3.80
2023-04-18T04:52:44.084Z,3.10
2023-04-18T04:55:13.400Z,3.70
2023-04-18T04:57:42.120Z,2.80
2023-04-18T05:00:11.720Z,2.80
2023-04-18T05:02:40.808Z,2.80
2023-04-18T05:05:09.765Z,3.10
2023-04-18T05:07:38.464Z,3.10
2023-04-18T05:10:07.734Z,3.40
2023-04-18T05:12:36.829Z,2.80
2023-04-18T05:15:06.471Z,3.30
2023-04-18T05:17:35.860Z,2.90
2023-04-18T05:20:06.044Z,3.60
2023-04-18T05:22:36.128Z,3.00
2023-04-18T05:25:05.576Z,2.90
2023-04-18T05:27:34.798Z,3.20
2023-04-18T05:30:03.579Z,3.30
2023-04-18T05:32:32.767Z,3.10
2023-04-18T05:35:01.679Z,3.10
2023-04-18T05:37:30.760Z,3.20
2023-04-18T05:40:01.152Z,3.40
2023-04-18T05:42:30.590Z,3.10
2023-04-18T05:45:00.198Z,3.00
2023-04-18T05:47:30.701Z,3.10
2023-04-18T05:50:00.070Z,3.30
2023-04-18T05:52:31.005Z,3.40
2023-04-18T05:55:01.295Z,4.00
2023-04-18T05:57:30.390Z,3.50
2023-04-18T05:59:59.994Z,3.70
2023-04-18T06:02:29.640Z,4.10
2023-04-18T06:05:00.803Z,3.60
2023-04-18T06:07:30.478Z,4.50
2023-04-18T06:09:59.481Z,24.30
2023-04-18T06:12:29.331Z,31.70
2023-04-18T06:14:58.694Z,25.40
2023-04-18T06:17:27.954Z,8.40
2023-04-18T06:19:56.647Z,6.80
2023-04-18T06:22:25.802Z,8.70
2023-04-18T06:24:56.330Z,6.10
2023-04-18T06:27:31.579Z,5.60
2023-04-18T06:30:00.674Z,4.30
2023-04-18T06:32:29.550Z,3.90
2023-04-18T06:34:58.780Z,4.20
2023-04-18T06:37:28.010Z,4.10
2023-04-18T06:39:56.633Z,4.10
2023-04-18T06:42:25.860Z,3.60
2023-04-18T06:44:54.837Z,3.60
2023-04-18T06:47:24.180Z,3.50
2023-04-18T06:49:53.692Z,4.20
2023-04-18T06:52:24.360Z,4.10
2023-04-18T06:54:54.419Z,4.70
2023-04-18T06:57:24.293Z,4.00
2023-04-18T06:59:53.532Z,4.10
2023-04-18T07:02:23.194Z,4.00
2023-04-18T07:04:53.108Z,4.30
2023-04-18T07:07:22.654Z,4.10
2023-04-18T07:09:53.237Z,4.00
2023-04-18T07:12:22.467Z,3.80
2023-04-18T07:14:52.883Z,3.70
2023-04-18T07:17:22.231Z,3.90
2023-04-18T07:19:51.195Z,4.10
2023-04-18T07:22:20.112Z,4.20
2023-04-18T07:24:49.065Z,4.20
2023-04-18T07:27:18.225Z,4.70
2023-04-18T07:29:47.661Z,4.70
2023-04-18T07:32:16.488Z,4.70
2023-04-18T07:34:45.808Z,5.10
2023-04-18T07:37:15.375Z,4.50
2023-04-18T07:39:44.237Z,4.90
2023-04-18T07:42:13.683Z,4.70
2023-04-18T07:44:43.156Z,4.80
2023-04-18T07:47:12.149Z,5.40
2023-04-18T07:49:42.479Z,4.90
2023-04-18T07:52:11.962Z,4.70
2023-04-18T07:54:40.991Z,4.90
2023-04-18T07:57:11.240Z,4.80
2023-04-18T07:59:40.349Z,5.00
2023-04-18T08:02:10.206Z,4.90
2023-04-18T08:04:40.767Z,4.70
2023-04-18T08:07:10.131Z,5.30
2023-04-18T08:09:39.201Z,6.10
2023-04-18T08:12:08.410Z,4.70
2023-04-18T08:14:37.672Z,5.00
2023-04-18T08:17:06.422Z,5.40
2023-04-18T08:19:35.576Z,6.80
2023-04-18T08:22:10.812Z,6.30
2023-04-18T08:24:41.697Z,6.50
2023-04-18T08:27:15.725Z,7.10
2023-04-18T08:29:45.312Z,9.50
2023-04-18T08:32:14.309Z,11.70
2023-04-18T08:34:44.093Z,6.70
2023-04-18T08:37:13.612Z,5.40
2023-04-18T08:39:42.783Z,9.50
2023-04-18T08:42:16.203Z,7.50
2023-04-18T08:44:48.304Z,7.90
2023-04-18T08:47:17.942Z,7.10
2023-04-18T08:49:47.602Z,6.30
2023-04-18T08:52:18.177Z,5.70
2023-04-18T08:54:47.844Z,5.60
2023-04-18T08:57:24.173Z,5.60
2023-04-18T08:59:54.357Z,5.00
2023-04-18T09:02:39.313Z,4.70
2023-04-18T09:05:13.362Z,4.90
2023-04-18T09:07:43.319Z,5.30
2023-04-18T09:10:14.256Z,5.30
2023-04-18T09:12:56.134Z,5.00
2023-04-18T09:15:30.585Z,5.00
2023-04-18T09:18:03.422Z,5.50
2023-04-18T09:20:36.179Z,5.60
2023-04-18T09:23:11.481Z,5.30
2023-04-18T09:25:46.983Z,5.70
2023-04-18T09:28:24.535Z,4.90
2023-04-18T09:30:54.932Z,6.20
2023-04-18T09:33:34.978Z,18.10
2023-04-18T09:36:29.752Z,17.50
2023-04-18T09:38:58.866Z,9.40
2023-04-18T09:41:28.056Z,6.10
2023-04-18T09:44:15.853Z,5.00
2023-04-18T09:46:47.684Z,4.80
2023-04-18T09:49:18.200Z,4.80
2023-04-18T09:51:50.493Z,4.70
2023-04-18T09:54:21.208Z,4.80
2023-04-18T09:56:54.710Z,5.20
2023-04-18T09:59:43.838Z,6.20
2023-04-18T10:02:21.564Z,7.10
2023-04-18T10:04:52.710Z,7.10
2023-04-18T10:07:22.208Z,4.90
2023-04-18T10:09:52.819Z,4.90
2023-04-18T10:12:22.076Z,4.40
2023-04-18T10:14:51.782Z,4.80
2023-04-18T10:17:24.257Z,4.40
2023-04-18T10:20:10.871Z,4.80
2023-04-18T10:22:40.388Z,4.60
2023-04-18T10:25:09.961Z,4.50
2023-04-18T10:27:59.273Z,5.10
2023-04-18T10:30:43.043Z,10.40
2023-04-18T10:33:30.490Z,7.20
2023-04-18T10:36:09.854Z,5.20
2023-04-18T10:38:46.338Z,4.70
2023-04-18T10:41:24.683Z,4.30
2023-04-18T10:44:18.879Z,3.90
2023-04-18T10:46:53.522Z,4.00
2023-04-18T10:49:34.583Z,5.60
2023-04-18T10:52:06.730Z,4.40
2023-04-18T10:54:48.558Z,4.10
2023-04-18T10:57:17.651Z,4.00
2023-04-18T10:59:51.944Z,4.50
2023-04-18T11:02:32.897Z,5.10
2023-04-18T11:05:07.630Z,6.10
2023-04-18T11:07:48.840Z,4.60
2023-04-18T11:10:23.481Z,4.90
2023-04-18T11:12:53.561Z,4.90
2023-04-18T11:15:25.780Z,4.40
2023-04-18T11:18:02.719Z,4.30
2023-04-18T11:20:50.574Z,4.20
2023-04-18T11:23:23.554Z,4.40
2023-04-18T11:25:55.063Z,4.90
2023-04-18T11:28:25.580Z,6.00
2023-04-18T11:30:59.932Z,5.20
2023-04-18T11:33:29.991Z,4.90
2023-04-18T11:35:59.916Z,5.10
2023-04-18T11:38:34.214Z,4.60
2023-04-18T11:41:03.779Z,4.50
2023-04-18T11:43:32.452Z,4.90
2023-04-18T11:46:02.255Z,4.50
2023-04-18T11:48:38.473Z,4.60
2023-04-18T11:51:09.723Z,5.90
2023-04-18T11:53:40.046Z,6.00
2023-04-18T11:56:09.216Z,6.50
2023-04-18T11:58:38.672Z,5.70
2023-04-18T12:01:27.822Z,4.20
2023-04-18T12:04:08.428Z,5.80
2023-04-18T12:06:52.893Z,6.30
2023-04-18T12:09:25.433Z,8.90
2023-04-18T12:12:03.327Z,7.30
2023-04-18T12:14:32.274Z,5.50
2023-04-18T12:17:04.684Z,5.10
2023-04-18T12:19:34.557Z,4.10
2023-04-18T12:22:05.621Z,4.70
2023-04-18T12:24:34.805Z,4.60
2023-04-18T12:27:04.225Z,5.70
2023-04-18T12:29:33.640Z,4.40
2023-04-18T12:32:02.839Z,4.30
2023-04-18T12:34:31.857Z,5.10
2023-04-18T12:37:01.212Z,4.60
2023-04-18T12:39:31.333Z,4.20
2023-04-18T12:42:01.456Z,3.90
2023-04-18T12:44:30.491Z,4.60
2023-04-18T12:46:59.606Z,4.00
2023-04-18T12:49:28.325Z,4.80
2023-04-18T12:51:57.294Z,4.10
2023-04-18T12:54:26.331Z,3.70
2023-04-18T12:56:56.171Z,3.80
2023-04-18T12:59:25.426Z,3.10
2023-04-18T13:01:54.373Z,4.50
2023-04-18T13:04:23.446Z,3.30
2023-04-18T13:06:52.261Z,3.60
2023-04-18T13:09:21.416Z,3.50
2023-04-18T13:11:50.411Z,3.90
2023-04-18T13:14:19.709Z,4.00
2023-04-18T13:16:49.749Z,3.90
2023-04-18T13:19:18.968Z,4.30
2023-04-18T13:21:49.572Z,4.00
2023-04-18T13:24:18.680Z,3.90
2023-04-18T13:26:48.235Z,4.40
2023-04-18T13:29:19.658Z,3.60
2023-04-18T13:31:49.455Z,3.20
2023-04-18T13:34:18.554Z,4.40
2023-04-18T13:36:47.475Z,4.00
2023-04-18T13:39:17.189Z,4.10
2023-04-18T13:41:46.433Z,3.50
2023-04-18T13:44:15.588Z,3.30
2023-04-18T13:46:45.484Z,3.30
2023-04-18T13:49:14.829Z,3.10
2023-04-18T13:51:43.928Z,3.30
2023-04-18T13:54:15.940Z,3.00
2023-04-18T13:56:45.112Z,2.70
2023-04-18T13:59:14.210Z,3.10
2023-04-18T14:01:43.639Z,2.60
2023-04-18T14:04:12.944Z,3.00
2023-04-18T14:06:42.443Z,4.70
2023-04-18T14:09:11.695Z,2.80
2023-04-18T14:11:41.271Z,3.00
2023-04-18T14:14:10.711Z,3.50
2023-04-18T14:16:39.792Z,3.50
2023-04-18T14:19:08.674Z,3.60
2023-04-18T14:21:37.566Z,3.10
2023-04-18T14:24:07.499Z,3.20
2023-04-18T14:26:36.604Z,3.60
2023-04-18T14:29:06.812Z,3.40
2023-04-18T14:31:37.000Z,3.40
2023-04-18T14:34:09.370Z,3.40
2023-04-18T14:36:41.670Z,5.10
2023-04-18T14:39:11.904Z,3.90
2023-04-18T14:41:41.763Z,3.50
2023-04-18T14:44:12.122Z,3.40
2023-04-18T14:46:43.295Z,3.60
2023-04-18T14:49:12.754Z,3.10
2023-04-18T14:51:41.710Z,3.90
2023-04-18T14:54:10.937Z,3.90
2023-04-18T14:56:39.898Z,3.40
2023-04-18T14:59:09.324Z,2.90
2023-04-18T15:01:38.593Z,4.10
2023-04-18T15:04:08.166Z,3.20
2023-04-18T15:06:37.609Z,3.50
2023-04-18T15:09:07.061Z,4.20
2023-04-18T15:11:35.929Z,4.10
2023-04-18T15:14:05.210Z,4.40
2023-04-18T15:16:35.949Z,4.10
2023-04-18T15:19:05.022Z,3.90
2023-04-18T15:21:35.633Z,4.40
2023-04-18T15:24:05.060Z,4.30
2023-04-18T15:26:33.875Z,4.00
2023-04-18T15:29:06.324Z,3.80
2023-04-18T15:31:37.143Z,4.60
2023-04-18T15:34:08.646Z,4.10
2023-04-18T15:36:37.671Z,3.60
2023-04-18T15:39:09.455Z,3.80
2023-04-18T15:41:39.380Z,3.20
2023-04-18T15:44:09.567Z,3.20
2023-04-18T15:46:39.126Z,3.40
2023-04-18T15:49:08.163Z,5.20
2023-04-18T15:51:37.903Z,4.30
2023-04-18T15:54:07.955Z,5.00
2023-04-18T15:56:38.111Z,4.10
2023-04-18T15:59:07.566Z,3.60
2023-04-18T16:01:36.894Z,3.30
2023-04-18T16:04:06.015Z,2.90
2023-04-18T16:06:36.415Z,2.80
2023-04-18T16:09:07.005Z,2.70
2023-04-18T16:11:36.422Z,4.00
2023-04-18T16:14:05.721Z,3.60
2023-04-18T16:16:35.186Z,21.00
2023-04-18T16:19:05.867Z,19.20
2023-04-18T16:21:34.596Z,14.30
2023-04-18T16:24:04.393Z,3.40
2023-04-18T16:26:35.464Z,3.80
2023-04-18T16:29:06.411Z,3.10
2023-04-18T16:31:37.205Z,3.10
2023-04-18T16:34:06.957Z,3.10
2023-04-18T16:36:36.344Z,3.00
2023-04-18T16:39:06.272Z,2.80
2023-04-18T16:41:36.293Z,3.20
2023-04-18T16:44:07.044Z,3.00
2023-04-18T16:46:36.814Z,4.00
2023-04-18T16:49:07.222Z,4.30
2023-04-18T16:51:37.733Z,4.50
2023-04-18T16:54:09.969Z,3.20
2023-04-18T16:56:40.333Z,3.10
2023-04-18T16:59:12.017Z,3.50
2023-04-18T17:01:42.832Z,3.50
2023-04-18T17:04:13.528Z,2.90
2023-04-18T17:06:44.759Z,2.60
2023-04-18T17:09:16.555Z,2.90
2023-04-18T17:11:50.319Z,2.90
2023-04-18T17:14:24.277Z,3.50
2023-04-18T17:16:54.915Z,4.10
2023-04-18T17:19:27.180Z,3.00
2023-04-18T17:21:56.735Z,3.40
2023-04-18T17:24:29.059Z,2.90
2023-04-18T17:26:58.765Z,3.70
2023-04-18T17:29:29.600Z,3.60
2023-04-18T17:32:00.517Z,3.40
2023-04-18T17:34:32.380Z,2.60
2023-04-18T17:37:05.097Z,2.40
2023-04-18T17:39:37.106Z,3.00
2023-04-18T17:42:09.223Z,2.30
2023-04-18T17:44:41.848Z,2.70
2023-04-18T17:47:13.318Z,3.20
2023-04-18T17:49:43.474Z,2.90
2023-04-18T17:52:15.695Z,3.10
2023-04-18T17:54:46.099Z,3.00
2023-04-18T17:57:17.864Z,3.50
2023-04-18T17:59:50.495Z,3.10
2023-04-18T18:02:24.420Z,3.20
2023-04-18T18:04:55.594Z,3.60
2023-04-18T18:07:26.251Z,3.20
2023-04-18T18:09:57.285Z,5.50
2023-04-18T18:12:30.124Z,4.90
2023-04-18T18:15:01.345Z,3.40
2023-04-18T18:17:31.581Z,3.40
2023-04-18T18:20:03.509Z,3.30
2023-04-18T18:22:38.938Z,3.30
2023-04-18T18:25:12.833Z,4.00
2023-04-18T18:27:45.292Z,2.90
2023-04-18T18:30:18.173Z,3.40
2023-04-18T18:32:50.494Z,2.80
2023-04-18T18:35:20.228Z,2.80
2023-04-18T18:37:51.919Z,2.70
2023-04-18T18:40:24.165Z,2.80
2023-04-18T18:42:57.983Z,2.80
2023-04-18T18:45:27.438Z,2.80
2023-04-18T18:47:56.785Z,3.10
2023-04-18T18:50:26.057Z,2.80
2023-04-18T18:52:56.164Z,3.00
2023-04-18T18:55:26.664Z,2.70
2023-04-18T18:57:57.381Z,3.00
2023-04-18T19:00:27.414Z,4.30
2023-04-18T19:02:57.442Z,2.90
2023-04-18T19:05:27.619Z,4.30
2023-04-18T19:07:58.126Z,2.90
2023-04-18T19:10:27.743Z,2.70
2023-04-18T19:12:57.425Z,3.00
2023-04-18T19:15:27.007Z,2.90
2023-04-18T19:17:57.612Z,3.10
2023-04-18T19:20:29.150Z,3.20
2023-04-18T19:22:59.044Z,5.00
2023-04-18T19:25:29.237Z,4.70
2023-04-18T19:27:59.120Z,4.40
2023-04-18T19:30:29.888Z,5.10
2023-04-18T19:33:01.638Z,5.50
2023-04-18T19:35:31.653Z,7.80
2023-04-18T19:38:04.211Z,9.20
2023-04-18T19:40:37.868Z,9.90
2023-04-18T19:43:11.485Z,9.10
2023-04-18T19:45:43.612Z,10.70
2023-04-18T19:48:15.614Z,14.00
2023-04-18T19:50:46.202Z,13.70
2023-04-18T19:53:19.678Z,11.80
2023-04-18T19:55:50.185Z,9.10
2023-04-18T19:58:49.978Z,9.90
2023-04-18T20:01:22.855Z,6.20
2023-04-18T20:03:56.674Z,5.20
2023-04-18T20:06:28.928Z,6.30
2023-04-18T20:09:00.054Z,5.00
2023-04-18T20:11:30.403Z,6.80
2023-04-18T20:14:02.833Z,9.20
2023-04-18T20:16:35.112Z,7.10
2023-04-18T20:19:06.688Z,7.10
2023-04-18T20:21:36.958Z,8.40
2023-04-18T20:24:10.187Z,5.10
2023-04-18T20:26:39.785Z,8.30
2023-04-18T20:29:09.814Z,8.30
2023-04-18T20:31:43.101Z,5.70
2023-04-18T20:38:31.830Z,6.40
2023-04-18T20:41:04.380Z,5.40
2023-04-18T20:43:38.737Z,4.80
2023-04-18T20:46:13.652Z,4.80
2023-04-18T20:48:49.910Z,4.90
2023-04-18T20:51:21.380Z,5.60
2023-04-18T20:53:51.339Z,4.00
2023-04-18T20:56:20.790Z,4.90
2023-04-18T20:58:50.610Z,4.60
2023-04-18T21:01:21.001Z,4.30
2023-04-18T21:03:51.065Z,3.60
2023-04-18T21:06:22.817Z,3.40
2023-04-18T21:08:53.760Z,3.10
2023-04-18T21:11:24.124Z,3.20
2023-04-18T21:13:53.568Z,3.60
2023-04-18T21:16:24.889Z,3.00
2023-04-18T21:18:57.709Z,3.10
2023-04-18T21:21:27.998Z,3.90
2023-04-18T21:23:58.148Z,3.40
2023-04-18T21:26:28.024Z,3.20
2023-04-18T21:28:58.290Z,3.90
2023-04-18T21:31:30.600Z,5.80
2023-04-18T21:34:03.644Z,7.10
2023-04-18T21:36:34.516Z,5.80
2023-04-18T21:39:04.705Z,6.50
2023-04-18T21:41:34.625Z,5.10
2023-04-18T21:44:03.826Z,4.60
2023-04-18T21:46:33.398Z,3.70
2023-04-18T21:49:02.400Z,4.00
2023-04-18T21:51:32.742Z,5.60
2023-04-18T21:54:02.731Z,4.20
2023-04-18T21:56:32.124Z,3.20
2023-04-18T21:59:01.724Z,4.30
2023-04-18T22:01:31.074Z,4.00
2023-04-18T22:04:01.701Z,3.20
2023-04-18T22:06:32.894Z,2.60
2023-04-18T22:09:02.242Z,2.60
2023-04-18T22:11:31.352Z,2.80
2023-04-18T22:14:00.989Z,3.00
2023-04-18T22:16:31.130Z,3.00
2023-04-18T22:19:01.868Z,3.00
2023-04-18T22:21:31.934Z,2.50
2023-04-18T22:24:01.446Z,2.40
2023-04-18T22:26:30.962Z,2.70
2023-04-18T22:29:01.219Z,2.50
2023-04-18T22:31:30.492Z,2.30
2023-04-18T22:34:00.032Z,5.30
2023-04-18T22:36:29.233Z,5.20
2023-04-18T22:38:59.529Z,5.20
2023-04-18T22:41:28.992Z,4.60
2023-04-18T22:43:58.312Z,4.50
2023-04-18T22:46:27.625Z,5.00
2023-04-18T22:48:57.769Z,4.70
2023-04-18T22:51:29.095Z,3.30
2023-04-18T22:53:59.531Z,3.10
2023-04-18T22:56:28.958Z,2.90
2023-04-18T22:58:58.209Z,3.10
2023-04-18T23:01:29.258Z,3.60
2023-04-18T23:03:59.305Z,3.20
2023-04-18T23:06:30.844Z,3.10
2023-04-18T23:09:00.380Z,5.50
2023-04-18T23:11:30.293Z,4.50
2023-04-18T23:13:59.126Z,4.70
2023-04-18T23:16:28.840Z,4.20
2023-04-18T23:18:57.781Z,3.10
2023-04-18T23:21:28.515Z,3.30
2023-04-18T23:23:57.609Z,6.10
2023-04-18T23:26:27.110Z,5.70
2023-04-18T23:28:56.033Z,3.80
2023-04-18T23:31:25.431Z,3.10
2023-04-18T23:33:57.012Z,2.10
2023-04-18T23:36:26.614Z,2.90
2023-04-18T23:38:55.931Z,2.60
2023-04-18T23:41:26.064Z,2.30
2023-04-18T23:43:55.529Z,2.40
2023-04-18T23:46:26.696Z,2.30
2023-04-18T23:48:55.865Z,2.10
2023-04-18T23:51:25.082Z,2.60
2023-04-18T23:53:54.246Z,3.10
2023-04-18T23:56:23.592Z,3.30
2023-04-18T23:58:54.954Z,3.20
